Whitchurch (Shropshire), United Kingdom
Current Conditions -  °F | °C
As of 12:50 AM on Wednesday 22 Oct 2014 (Local Time) from EGOS Reporting Station
Clear Clear  
Wind Chill: 40°   Ceiling: Unl
Heat Index: 45°   Visibility: 6mi
Dew Point: 36°   Wind: 8mph
Humidity: 71%   Direction: 260°W
Pressure: 30.15"   Gusts: NA
Location:  52.97°N, 2.68°W
Report Text: EGOS 212350Z AUTO 26007KT 9999 NCD 07/02 Q1021
Loading
Personal Weather Stations






























Interactive Weather Map
Tropical Storm Tracking
New forecast layout! Learn more

10-Day Weather Forecast

Advertisements
Track Severe Weather on mobile